Camargo, Illinois
Current Conditions -  °F | °C
As of 7:53 AM on Saturday 22 Nov 2014 (Local Time) from KCMI Reporting Station
Overcast Overcast  
Wind Chill: 36°   Ceiling: 4100
Heat Index: 42°   Visibility: 9mi
Dew Point: 38°   Wind: 12mph
Humidity: 85%   Direction: 190°S
Pressure: 30.1"   Gusts: NA
Location:  39.8°N, 88.16°W
Report Text: KCMI 221353Z 19010KT 9SM BKN041 OVC095 06/03 A3010 RMK AO2 RAB04E16 SLP199 P0000 T00560033 $
Loading
Personal Weather Stations






























Interactive Weather Map New forecast layout! Learn more

10-Day Weather Forecast

Advertisements
Track Severe Weather on mobile